Time;durP1;ratioP1;P1;durP2;ratioP2;P2;SDS_P1;SDS_P2;PMS_P1;PMS_P2;Temp;Humidity;BMP_temperature;BMP_pressure;BME280_temperature;BME280_humidity;BME280_pressure;Samples;Min_cycle;Max_cycle;Signal;HPM_P1;HPM_P2
2021/04/08 00:00:42;;;;;;;8.55;3.83;;;4.60;73.70;;;;;;4999001;28;20038;-75
2021/04/08 00:03:08;;;;;;;7.18;3.53;;;4.60;74.20;;;;;;5005564;28;20065;-75
2021/04/08 00:05:33;;;;;;;10.05;3.88;;;4.60;74.20;;;;;;4992535;28;20033;-75
2021/04/08 00:07:59;;;;;;;10.30;4.15;;;5.40;74.10;;;;;;5006472;28;20026;-75
2021/04/08 00:10:24;;;;;;;9.48;4.30;;;4.70;73.90;;;;;;5015328;28;20077;-76
2021/04/08 00:12:50;;;;;;;8.68;3.90;;;4.60;74.30;;;;;;5008619;28;20053;-76
2021/04/08 00:15:17;;;;;;;8.07;3.83;;;5.10;74.00;;;;;;4988736;28;20034;-76
2021/04/08 00:17:43;;;;;;;6.40;3.70;;;;;;;;;;4993283;28;20460;-77
2021/04/08 00:20:20;;;;;;;9.35;4.63;;;4.60;74.70;;;;;;5011026;28;20528;-75
2021/04/08 00:22:50;;;;;;;7.30;3.92;;;4.60;74.30;;;;;;5007078;28;20042;-75
2021/04/08 00:25:15;;;;;;;8.95;4.20;;;4.70;74.70;;;;;;5011482;28;20030;-75
2021/04/08 00:27:42;;;;;;;7.28;4.15;;;4.70;75.10;;;;;;5006970;28;20029;-76
2021/04/08 00:30:09;;;;;;;10.55;4.95;;;4.60;75.20;;;;;;5011512;28;20041;-75
2021/04/08 00:32:35;;;;;;;8.40;4.30;;;4.60;75.20;;;;;;5010063;28;20062;-75
2021/04/08 00:35:01;;;;;;;10.27;4.35;;;4.60;75.50;;;;;;5008073;28;20084;-74
2021/04/08 00:37:27;;;;;;;11.38;5.35;;;;;;;;;;5005060;28;20470;-74
2021/04/08 00:39:53;;;;;;;9.35;4.57;;;;;;;;;;4992730;28;20030;-75
2021/04/08 00:42:19;;;;;;;12.35;4.82;;;4.50;74.60;;;;;;5002442;28;20064;-76
2021/04/08 00:44:45;;;;;;;9.60;4.57;;;;;;;;;;5007008;28;20038;-75
2021/04/08 00:47:11;;;;;;;10.75;4.93;;;4.50;74.70;;;;;;5008521;28;20032;-76
2021/04/08 00:49:36;;;;;;;9.55;4.93;;;4.50;75.80;;;;;;4990976;28;20549;-74
2021/04/08 00:52:02;;;;;;;7.65;4.50;;;4.40;75.00;;;;;;4994990;28;20021;-75
2021/04/08 00:54:28;;;;;;;8.68;4.50;;;4.40;75.70;;;;;;5009094;28;20512;-76
2021/04/08 00:56:54;;;;;;;9.60;4.90;;;4.40;76.10;;;;;;4989509;28;20057;-75
2021/04/08 00:59:23;;;;;;;10.82;4.80;;;4.40;76.10;;;;;;5005968;28;20053;-76
2021/04/08 01:01:49;;;;;;;6.88;4.28;;;4.40;75.90;;;;;;4988348;28;20665;-77
2021/04/08 01:04:15;;;;;;;8.73;5.20;;;4.30;76.30;;;;;;5004525;28;20033;-76
2021/04/08 01:06:41;;;;;;;8.02;4.57;;;;;;;;;;5007822;28;20134;-75
2021/04/08 01:09:07;;;;;;;10.25;4.80;;;;;;;;;;4987791;28;20052;-77
2021/04/08 01:11:33;;;;;;;11.98;5.05;;;4.30;76.30;;;;;;5007503;28;20052;-74
2021/04/08 01:13:59;;;;;;;8.93;5.15;;;4.30;76.30;;;;;;5003147;28;20468;-75
2021/04/08 01:16:35;;;;;;;10.10;4.82;;;4.30;76.20;;;;;;4994643;28;20029;-75
2021/04/08 01:19:16;;;;;;;8.68;5.18;;;4.40;76.40;;;;;;4990671;28;22532;-76
2021/04/08 01:22:17;;;;;;;7.80;5.15;;;4.30;76.80;;;;;;5009468;28;20030;-76
2021/04/08 01:24:51;;;;;;;12.02;4.90;;;4.30;77.10;;;;;;4972632;28;20404;-76
2021/04/08 01:27:29;;;;;;;9.70;5.07;;;4.30;77.10;;;;;;5007926;28;20033;-75
2021/04/08 01:30:19;;;;;;;10.13;4.90;;;4.30;77.30;;;;;;5005649;28;20033;-77
2021/04/08 01:32:56;;;;;;;8.30;5.28;;;4.20;77.40;;;;;;5004526;28;20121;-75
2021/04/08 01:35:27;;;;;;;12.35;5.25;;;4.20;77.60;;;;;;5009272;28;20210;-75
2021/04/08 01:38:19;;;;;;;11.60;5.10;;;4.30;77.20;;;;;;4996917;28;20042;-74
2021/04/08 01:40:46;;;;;;;11.57;5.68;;;4.40;77.00;;;;;;4998464;28;20040;-77
2021/04/08 01:43:15;;;;;;;13.63;5.43;;;4.30;77.20;;;;;;4987261;28;20687;-75
2021/04/08 01:45:41;;;;;;;12.73;5.68;;;4.30;77.40;;;;;;4984963;28;20034;-75
2021/04/08 01:48:07;;;;;;;9.60;5.45;;;4.30;77.90;;;;;;4992937;28;20053;-74
2021/04/08 01:50:34;;;;;;;9.73;5.68;;;4.10;78.30;;;;;;4989109;28;20018;-76
2021/04/08 01:53:01;;;;;;;13.27;6.35;;;4.10;78.40;;;;;;4990757;28;20034;-75
2021/04/08 01:55:32;;;;;;;9.63;5.05;;;4.10;78.50;;;;;;4989300;28;20060;-76
2021/04/08 01:58:00;;;;;;;10.82;5.57;;;4.10;78.70;;;;;;4990962;28;20057;-76
2021/04/08 02:00:26;;;;;;;9.48;5.25;;;4.10;78.70;;;;;;5001992;28;20057;-76
2021/04/08 02:02:56;;;;;;;12.98;6.15;;;4.10;79.50;;;;;;5002268;28;20113;-76
2021/04/08 02:05:24;;;;;;;10.10;5.70;;;4.10;79.30;;;;;;4990768;28;20052;-75
2021/04/08 02:07:53;;;;;;;8.98;5.55;;;4.10;80.00;;;;;;4973007;28;20165;-74
2021/04/08 02:10:19;;;;;;;13.98;6.03;;;4.10;80.00;;;;;;5002688;28;20065;-76
2021/04/08 02:12:50;;;;;;;9.63;5.85;;;4.00;79.90;;;;;;5002283;28;20996;-75
2021/04/08 02:15:21;;;;;;;8.77;5.75;;;4.00;79.70;;;;;;4987538;28;20026;-77
2021/04/08 02:17:50;;;;;;;12.27;5.60;;;4.10;80.00;;;;;;4988249;28;20049;-77
2021/04/08 02:20:18;;;;;;;12.32;5.57;;;4.00;79.80;;;;;;5007768;28;20030;-75
2021/04/08 02:22:47;;;;;;;10.82;5.35;;;4.10;80.10;;;;;;5006672;28;20026;-76
2021/04/08 02:25:14;;;;;;;13.82;5.97;;;4.10;79.90;;;;;;5006365;28;20035;-74
2021/04/08 02:27:42;;;;;;;9.43;5.72;;;4.10;79.80;;;;;;5007024;28;20084;-75
2021/04/08 02:30:11;;;;;;;8.93;5.78;;;4.10;80.10;;;;;;5002182;28;20026;-76
2021/04/08 02:32:38;;;;;;;10.27;5.82;;;4.00;80.40;;;;;;4991956;28;20443;-74
2021/04/08 02:35:09;;;;;;;11.27;5.90;;;4.00;80.40;;;;;;5003177;28;20026;-76
2021/04/08 02:37:38;;;;;;;12.25;5.97;;;4.00;80.50;;;;;;4988800;28;20030;-75
2021/04/08 02:40:07;;;;;;;10.38;6.20;;;4.00;80.30;;;;;;5007726;28;20026;-76
2021/04/08 02:42:34;;;;;;;10.48;5.30;;;;;;;;;;4991758;28;20041;-75
2021/04/08 02:45:00;;;;;;;13.98;6.15;;;4.00;80.60;;;;;;5005133;28;20022;-77
2021/04/08 02:47:26;;;;;;;10.50;5.82;;;;;;;;;;4992898;28;20041;-74
2021/04/08 02:49:52;;;;;;;11.00;5.38;;;;;;;;;;5009220;28;20374;-76
2021/04/08 02:52:23;;;;;;;10.32;5.95;;;4.00;81.10;;;;;;5005803;28;20550;-78
2021/04/08 02:54:59;;;;;;;9.93;5.20;;;4.00;81.50;;;;;;5011535;28;20041;-76
2021/04/08 02:57:34;;;;;;;13.60;5.47;;;4.00;81.30;;;;;;4993849;28;20034;-75
2021/04/08 03:00:10;;;;;;;12.23;6.00;;;4.00;81.80;;;;;;4992361;28;20041;-73
2021/04/08 03:02:42;;;;;;;10.90;5.82;;;4.00;81.70;;;;;;5008237;28;20048;-75
2021/04/08 03:05:12;;;;;;;15.25;5.82;;;4.00;82.10;;;;;;4995067;28;20065;-76
2021/04/08 03:07:45;;;;;;;6.93;4.70;;;4.00;82.20;;;;;;4993608;28;20037;-74
2021/04/08 03:10:13;;;;;;;9.63;5.32;;;4.00;81.50;;;;;;4999755;28;20041;-75
2021/04/08 03:12:44;;;;;;;8.20;5.30;;;3.90;81.40;;;;;;5005309;28;20034;-74
2021/04/08 03:15:11;;;;;;;8.60;5.25;;;3.90;81.40;;;;;;4988065;28;20084;-75
2021/04/08 03:17:41;;;;;;;8.20;4.93;;;3.80;81.90;;;;;;4986376;28;20045;-76
2021/04/08 03:20:10;;;;;;;10.53;5.40;;;3.80;82.30;;;;;;4993414;28;20073;-75
2021/04/08 03:22:38;;;;;;;10.57;5.20;;;3.80;82.50;;;;;;4991262;28;20303;-74
2021/04/08 03:25:08;;;;;;;11.27;5.68;;;3.80;82.90;;;;;;5009665;28;20025;-77
2021/04/08 03:27:36;;;;;;;12.15;4.90;;;3.80;82.70;;;;;;5006714;28;20211;-77
2021/04/08 03:30:04;;;;;;;11.13;5.20;;;3.70;83.00;;;;;;4986128;28;20694;-78
2021/04/08 03:32:30;;;;;;;10.00;5.03;;;;;;;;;;5000140;28;20022;-75
2021/04/08 03:34:56;;;;;;;11.88;6.13;;;;;;;;;;5007394;28;20029;-76
2021/04/08 03:37:22;;;;;;;11.82;5.55;;;;;;;;;;5015994;28;20045;-76
2021/04/08 03:39:49;;;;;;;11.38;5.18;;;3.70;83.60;;;;;;4993187;28;20056;-75
2021/04/08 03:42:15;;;;;;;10.50;5.35;;;;;;;;;;5007046;28;20042;-75
2021/04/08 03:44:42;;;;;;;10.32;5.40;;;3.70;83.20;;;;;;4989402;28;20060;-76
2021/04/08 03:47:08;;;;;;;13.70;5.38;;;;;;;;;;4986865;28;20428;-76
2021/04/08 03:49:34;;;;;;;9.27;5.40;;;;;;;;;;4989314;28;20424;-74
2021/04/08 03:52:02;;;;;;;10.25;5.68;;;3.60;83.50;;;;;;5011390;28;20025;-77
2021/04/08 03:54:28;;;;;;;11.88;5.82;;;3.60;83.30;;;;;;5008237;28;20769;-76
2021/04/08 03:56:57;;;;;;;9.80;5.18;;;3.60;83.40;;;;;;4986332;28;20462;-77
2021/04/08 03:59:24;;;;;;;10.27;5.32;;;3.60;82.90;;;;;;5004256;28;20077;-76
2021/04/08 04:01:51;;;;;;;10.52;4.88;;;3.50;83.40;;;;;;5003647;28;20030;-75
2021/04/08 04:04:17;;;;;;;11.70;5.40;;;3.50;83.40;;;;;;4993903;28;20124;-78
2021/04/08 04:06:48;;;;;;;11.63;5.40;;;3.50;83.60;;;;;;4988247;28;22473;-75
2021/04/08 04:09:14;;;;;;;;;;;3.50;82.90;;;;;;5003500;28;20025;-76
2021/04/08 04:11:45;;;;;;;10.15;4.88;;;3.40;83.00;;;;;;5006262;28;20327;-76
2021/04/08 04:14:15;;;;;;;12.48;5.20;;;3.40;83.70;;;;;;5005645;28;20121;-75
2021/04/08 04:16:45;;;;;;;11.63;5.40;;;3.40;83.90;;;;;;5006121;28;20266;-75
2021/04/08 04:19:11;;;;;;;8.60;4.47;;;;;;;;;;5005617;28;20072;-74
2021/04/08 04:21:37;;;;;;;10.18;5.30;;;3.40;83.90;;;;;;5007695;28;20061;-76
2021/04/08 04:24:04;;;;;;;12.18;5.45;;;3.40;84.30;;;;;;5006420;28;20014;-75
2021/04/08 04:26:30;;;;;;;11.32;5.20;;;3.40;84.30;;;;;;5007729;28;20056;-76
2021/04/08 04:28:56;;;;;;;10.65;5.55;;;;;;;;;;5006745;28;20026;-76
2021/04/08 04:31:22;;;;;;;11.98;6.00;;;;;;;;;;5007157;28;20053;-75
2021/04/08 04:33:48;;;;;;;11.45;5.55;;;;;;;;;;4991048;28;20068;-76
2021/04/08 04:36:14;;;;;;;9.77;5.05;;;3.30;84.50;;;;;;5008443;28;20034;-76
2021/04/08 04:38:39;;;;;;;14.68;5.60;;;3.30;84.40;;;;;;4984799;28;20037;-74
2021/04/08 04:41:05;;;;;;;11.68;5.50;;;3.30;84.60;;;;;;5004730;28;20038;-74
2021/04/08 04:43:31;;;;;;;11.57;5.75;;;3.30;85.10;;;;;;5008403;28;20034;-74
2021/04/08 04:45:56;;;;;;;10.85;6.18;;;4.00;86.10;;;;;;4990648;28;20488;-75
2021/04/08 04:48:22;;;;;;;12.43;5.93;;;3.20;86.50;;;;;;4989626;28;20033;-74
2021/04/08 04:50:51;;;;;;;11.75;6.00;;;3.20;86.80;;;;;;5010080;28;20125;-76
2021/04/08 04:53:17;;;;;;;13.15;6.80;;;3.10;87.00;;;;;;5005184;28;20097;-75
2021/04/08 04:55:42;;;;;;;15.07;6.70;;;3.10;88.30;;;;;;5012050;28;20351;-77
2021/04/08 04:58:11;;;;;;;12.52;6.25;;;3.00;88.70;;;;;;4994235;28;20060;-76
2021/04/08 05:00:37;;;;;;;11.23;6.20;;;2.90;89.30;;;;;;5006736;28;20148;-76
2021/04/08 05:03:03;;;;;;;11.75;7.05;;;;;;;;;;5004659;28;20049;-76
2021/04/08 05:05:31;;;;;;;14.25;7.43;;;;;;;;;;5018432;28;20021;-77
2021/04/08 05:07:57;;;;;;;13.02;6.65;;;2.90;90.20;;;;;;5008595;28;20040;-76
2021/04/08 05:10:23;;;;;;;14.85;6.88;;;;;;;;;;5010651;28;20114;-75
2021/04/08 05:12:49;;;;;;;13.82;6.18;;;;;;;;;;5010257;28;20034;-78
2021/04/08 05:15:15;;;;;;;14.82;6.35;;;3.00;90.30;;;;;;5003013;28;20053;-80
2021/04/08 05:17:41;;;;;;;11.60;5.90;;;;;;;;;;5010246;28;20038;-76
2021/04/08 05:20:07;;;;;;;16.88;7.53;;;2.90;90.70;;;;;;4993502;28;20061;-77
2021/04/08 05:22:33;;;;;;;14.75;6.65;;;;;;;;;;5000281;28;20496;-76
2021/04/08 05:24:59;;;;;;;14.57;6.60;;;2.90;90.90;;;;;;5008997;28;20057;-76
2021/04/08 05:27:25;;;;;;;15.73;6.80;;;;;;;;;;4992195;28;20030;-75
2021/04/08 05:29:53;;;;;;;12.38;7.40;;;2.90;90.90;;;;;;4999937;28;20471;-75
2021/04/08 05:32:18;;;;;;;12.25;6.82;;;2.80;91.10;;;;;;5004931;28;20064;-74
2021/04/08 05:34:44;;;;;;;13.82;6.90;;;2.80;91.00;;;;;;5011769;28;20057;-75
2021/04/08 05:37:09;;;;;;;11.30;6.63;;;2.80;91.40;;;;;;5011973;28;20271;-76
2021/04/08 05:39:35;;;;;;;13.43;6.60;;;2.80;91.30;;;;;;5008080;28;20026;-75
2021/04/08 05:42:01;;;;;;;10.23;6.13;;;2.80;91.20;;;;;;4994127;28;20029;-77
2021/04/08 05:44:27;;;;;;;12.90;7.65;;;2.70;91.30;;;;;;4987964;28;20412;-75
2021/04/08 05:46:52;;;;;;;12.38;6.88;;;2.80;91.50;;;;;;4988497;28;20542;-76
2021/04/08 05:49:18;;;;;;;16.92;6.72;;;;;;;;;;4997093;28;20105;-76
2021/04/08 05:51:44;;;;;;;10.90;6.57;;;;;;;;;;5001329;28;20026;-75
2021/04/08 05:54:10;;;;;;;16.15;7.70;;;2.80;91.70;;;;;;5007175;28;20097;-77
2021/04/08 05:56:36;;;;;;;16.27;6.70;;;2.80;91.70;;;;;;4989567;28;20026;-75
2021/04/08 05:59:01;;;;;;;15.15;8.30;;;2.80;91.70;;;;;;4991835;28;20042;-78
2021/04/08 06:01:28;;;;;;;18.15;8.43;;;2.80;91.90;;;;;;5015056;23;20403;-80
2021/04/08 06:03:54;;;;;;;17.48;7.47;;;2.80;92.40;;;;;;4994346;28;20033;-81
2021/04/08 06:06:20;;;;;;;13.45;7.32;;;2.80;92.80;;;;;;4991882;28;20022;-82
2021/04/08 06:08:47;;;;;;;16.13;7.68;;;;;;;;;;4991563;28;20018;-83
2021/04/08 06:11:12;;;;;;;12.90;7.50;;;2.80;92.50;;;;;;4995218;28;20022;-82
2021/04/08 06:13:39;;;;;;;17.52;7.47;;;;;;;;;;5000333;28;20102;-82
2021/04/08 06:16:05;;;;;;;13.60;8.02;;;2.90;92.30;;;;;;4991132;28;20030;-85
2021/04/08 06:18:31;;;;;;;12.57;7.13;;;;;;;;;;5005774;28;20033;-80
2021/04/08 06:20:57;;;;;;;11.90;7.43;;;3.00;92.10;;;;;;5004848;28;20099;-84
2021/04/08 06:23:26;;;;;;;14.75;6.90;;;3.10;91.80;;;;;;5007335;28;20108;-82
2021/04/08 06:25:52;;;;;;;15.43;7.22;;;;;;;;;;5003578;28;20438;-80
2021/04/08 06:28:18;;;;;;;15.48;7.95;;;;;;;;;;5020102;28;20029;-80
2021/04/08 06:30:45;;;;;;;20.50;7.95;;;;;;;;;;5020840;28;20061;-80
2021/04/08 06:33:12;;;;;;;12.10;6.72;;;;;;;;;;5008181;28;20044;-86
2021/04/08 06:35:38;;;;;;;15.90;7.30;;;;;;;;;;5005039;28;20038;-84
2021/04/08 06:38:04;;;;;;;17.95;7.65;;;;;;;;;;5009605;28;20034;-81
2021/04/08 06:40:30;;;;;;;16.42;8.68;;;;;;;;;;5027198;28;20030;-81
2021/04/08 06:42:56;;;;;;;15.48;8.05;;;;;;;;;;5008926;28;20033;-83
2021/04/08 06:45:24;;;;;;;16.63;8.98;;;3.80;88.30;;;;;;5023176;28;20026;-85
2021/04/08 06:48:08;;;;;;;16.60;7.93;;;3.90;87.90;;;;;;5009983;28;20049;-82
2021/04/08 06:50:36;;;;;;;22.15;8.25;;;4.10;87.60;;;;;;5009561;28;20034;-85
2021/04/08 06:53:06;;;;;;;16.95;7.72;;;4.30;86.20;;;;;;5009918;28;20080;-83
2021/04/08 06:55:33;;;;;;;15.77;7.45;;;4.40;83.20;;;;;;5010781;28;20041;-84
2021/04/08 06:58:00;;;;;;;11.52;6.78;;;4.50;82.20;;;;;;5006175;28;20105;-84
2021/04/08 07:00:26;;;;;;;12.25;6.50;;;4.70;79.20;;;;;;5009927;28;20037;-80
2021/04/08 07:02:52;;;;;;;14.95;6.95;;;;;;;;;;5008070;28;20168;-81
2021/04/08 07:05:18;;;;;;;13.25;6.13;;;;;;;;;;5009956;28;20026;-82
2021/04/08 07:07:44;;;;;;;15.55;6.20;;;;;;;;;;5010086;28;20026;-81
2021/04/08 07:10:11;;;;;;;9.30;5.13;;;;;;;;;;5010593;28;20090;-83
2021/04/08 07:12:37;;;;;;;11.55;5.05;;;5.30;73.30;;;;;;5011260;28;20030;-81
2021/04/08 07:15:05;;;;;;;11.07;5.88;;;5.20;72.10;;;;;;5011689;28;20034;-86
2021/04/08 07:17:31;;;;;;;10.70;5.57;;;;;;;;;;5009434;28;20490;-83
2021/04/08 07:19:58;;;;;;;11.27;5.63;;;;;;;;;;5008203;28;20038;-88
2021/04/08 07:22:24;;;;;;;12.25;6.13;;;5.50;71.50;;;;;;5004288;28;20062;-85
2021/04/08 07:24:52;;;;;;;11.60;5.70;;;5.40;69.80;;;;;;4989090;28;20050;-82
2021/04/08 07:27:19;;;;;;;9.73;5.40;;;;;;;;;;4987012;28;20034;-86
2021/04/08 07:29:49;;;;;;;15.13;6.13;;;5.80;68.60;;;;;;5013264;28;20350;-81
2021/04/08 07:32:15;;;;;;;10.30;5.75;;;;;;;;;;5006124;28;20026;-84
2021/04/08 07:34:41;;;;;;;10.82;5.85;;;;;;;;;;5007533;28;20080;-86
2021/04/08 07:37:07;;;;;;;9.55;5.88;;;5.80;68.40;;;;;;5005671;28;20033;-83
2021/04/08 07:39:45;;;;;;;8.95;4.63;;;5.90;68.30;;;;;;5002044;28;20027;-84
2021/04/08 07:42:17;;;;;;;11.60;5.70;;;6.00;67.00;;;;;;5000476;28;20041;-81
2021/04/08 07:44:49;;;;;;;15.05;5.55;;;6.20;65.30;;;;;;4997457;28;20040;-82
2021/04/08 07:47:17;;;;;;;15.50;5.80;;;6.20;65.80;;;;;;5003537;28;20060;-87
2021/04/08 07:49:42;;;;;;;13.55;6.53;;;6.30;63.10;;;;;;5003718;28;20094;-83
2021/04/08 07:52:27;;;;;;;13.55;4.68;;;6.40;63.40;;;;;;5003419;28;20054;-85
2021/04/08 07:55:03;;;;;;;10.60;4.50;;;6.80;61.90;;;;;;5005416;28;20053;-84
2021/04/08 07:57:30;;;;;;;10.48;4.78;;;6.60;57.70;;;;;;5003882;28;20030;-87
2021/04/08 07:59:56;;;;;;;8.68;3.75;;;6.50;58.10;;;;;;5003311;28;20061;-82
2021/04/08 08:02:24;;;;;;;9.90;4.10;;;6.70;56.80;;;;;;5002131;28;20037;-82
2021/04/08 08:04:50;;;;;;;10.80;3.90;;;;;;;;;;5002110;28;20467;-83
2021/04/08 08:07:30;;;;;;;8.85;4.15;;;7.30;56.70;;;;;;5002216;28;20060;-85
2021/04/08 08:10:00;;;;;;;10.35;4.05;;;7.20;56.30;;;;;;5004819;28;20036;-83
2021/04/08 08:12:32;;;;;;;9.15;4.15;;;7.30;55.90;;;;;;5014460;28;20526;-84
2021/04/08 08:15:19;;;;;;;9.00;4.40;;;7.40;55.60;;;;;;4996555;28;20029;-84
2021/04/08 08:17:45;;;;;;;8.88;4.22;;;;;;;;;;5004501;28;20036;-83
2021/04/08 08:20:12;;;;;;;8.38;4.40;;;7.40;55.20;;;;;;5004945;28;20510;-82
2021/04/08 08:22:39;;;;;;;7.20;3.90;;;7.30;55.10;;;;;;5005987;28;20502;-85
2021/04/08 08:25:06;;;;;;;10.93;4.43;;;7.10;55.00;;;;;;5005504;28;20048;-86
2021/04/08 08:27:52;;;;;;;7.70;3.88;;;7.20;53.90;;;;;;5001852;28;20030;-85
2021/04/08 08:30:24;;;;;;;7.43;3.97;;;7.30;54.20;;;;;;4999317;28;20041;-89
2021/04/08 08:33:18;;;;;;;7.45;4.10;;;7.10;54.30;;;;;;4998852;28;20034;-84
2021/04/08 08:35:44;;;;;;;11.18;4.32;;;7.10;55.30;;;;;;5011443;28;20050;-82
2021/04/08 08:38:15;;;;;;;7.82;4.15;;;7.20;55.30;;;;;;4998165;28;20030;-83
2021/04/08 08:40:42;;;;;;;7.68;4.07;;;7.40;52.60;;;;;;4999584;28;20044;-84
2021/04/08 08:43:09;;;;;;;8.80;3.70;;;7.50;51.50;;;;;;5000514;28;20061;-85
2021/04/08 08:45:36;;;;;;;8.32;3.60;;;7.40;51.80;;;;;;5011127;28;20034;-83
2021/04/08 08:48:06;;;;;;;8.23;3.55;;;7.50;51.40;;;;;;4996800;28;20030;-87
2021/04/08 08:50:32;;;;;;;7.97;3.20;;;7.40;50.80;;;;;;4994899;28;20025;-83
2021/04/08 08:53:00;;;;;;;9.90;4.05;;;7.40;50.70;;;;;;4994675;28;20040;-87
2021/04/08 08:55:27;;;;;;;9.63;3.33;;;8.10;50.30;;;;;;4994601;28;20022;-85
2021/04/08 08:57:55;;;;;;;7.50;3.38;;;7.20;50.20;;;;;;4992144;28;20037;-86
2021/04/08 09:00:22;;;;;;;5.35;3.10;;;7.90;48.30;;;;;;4997189;28;20037;-85
2021/04/08 09:02:49;;;;;;;5.15;2.88;;;7.90;48.70;;;;;;4997671;28;20034;-84
2021/04/08 09:05:20;;;;;;;8.45;2.95;;;8.00;47.30;;;;;;4991982;28;20399;-82
2021/04/08 09:07:49;;;;;;;6.40;2.72;;;7.90;48.30;;;;;;5013587;28;20644;-85
2021/04/08 09:10:33;;;;;;;8.40;2.80;;;8.20;47.70;;;;;;5013379;28;20027;-88
2021/04/08 09:12:59;;;;;;;6.22;3.10;;;;;;;;;;5015793;28;20475;-84
2021/04/08 09:15:25;;;;;;;6.45;2.80;;;;;;;;;;5000000;28;20125;-80
2021/04/08 09:17:59;;;;;;;7.20;3.15;;;8.30;46.90;;;;;;4999573;28;20076;-85
2021/04/08 09:20:26;;;;;;;8.18;3.38;;;8.20;47.40;;;;;;5012657;28;20404;-83
2021/04/08 09:23:02;;;;;;;8.52;4.13;;;8.10;48.20;;;;;;4992346;28;20033;-82
2021/04/08 09:25:31;;;;;;;14.85;3.67;;;8.30;46.70;;;;;;4981741;28;20026;-80
2021/04/08 09:28:19;;;;;;;8.02;3.53;;;8.10;47.90;;;;;;4994418;28;20202;-86
2021/04/08 09:33:42;;;;;;;7.50;3.40;;;;;;;;;;5018879;28;20025;-86
2021/04/08 09:36:27;;;;;;;11.40;3.10;;;8.70;47.80;;;;;;4998244;28;20036;-86
2021/04/08 09:38:56;;;;;;;6.75;2.88;;;;;;;;;;5010419;28;20037;-84
2021/04/08 09:41:42;;;;;;;4.82;2.65;;;8.90;46.80;;;;;;5001339;28;20038;-86
2021/04/08 09:44:09;;;;;;;14.73;6.32;;;9.00;47.10;;;;;;4997993;28;20093;-83
2021/04/08 09:46:41;;;;;;;8.02;3.15;;;9.30;45.40;;;;;;4998399;28;20215;-88
2021/04/08 09:49:07;;;;;;;9.07;2.83;;;;;;;;;;4997113;28;20018;-84
2021/04/08 09:51:34;;;;;;;7.57;3.22;;;9.10;45.10;;;;;;4999650;28;20407;-87
2021/04/08 09:54:08;;;;;;;6.60;3.15;;;9.00;45.10;;;;;;4997968;28;20029;-85
2021/04/08 09:56:43;;;;;;;7.18;3.05;;;9.30;44.70;;;;;;4999670;28;20029;-88
2021/04/08 09:59:09;;;;;;;9.57;2.90;;;;;;;;;;4999426;28;20149;-84
2021/04/08 10:01:35;;;;;;;9.95;3.20;;;;;;;;;;5001419;28;20056;-83
2021/04/08 10:04:12;;;;;;;5.50;3.15;;;9.20;44.60;;;;;;5005494;28;20160;-84
2021/04/08 10:06:38;;;;;;;7.85;3.30;;;;;;;;;;5008960;28;20026;-82
2021/04/08 10:09:13;;;;;;;9.90;3.58;;;9.30;45.00;;;;;;5000749;28;20038;-83
2021/04/08 10:11:39;;;;;;;9.13;3.28;;;;;;;;;;5002421;28;20034;-88
2021/04/08 10:14:35;;;;;;;11.75;3.63;;;9.10;45.80;;;;;;5006206;28;20034;-86
2021/04/08 10:17:00;;;;;;;5.85;2.90;;;;;;;;;;4984980;28;20072;-89
2021/04/08 10:19:40;;;;;;;7.25;3.38;;;9.20;45.00;;;;;;5011376;28;20097;-88
2021/04/08 10:22:09;;;;;;;6.35;3.22;;;9.10;45.40;;;;;;5008497;28;20037;-85
2021/04/08 10:24:38;;;;;;;8.23;3.70;;;8.90;45.40;;;;;;5002303;28;20026;-86
2021/04/08 10:27:17;;;;;;;7.50;3.17;;;8.90;45.40;;;;;;5016590;28;20026;-88
2021/04/08 10:29:48;;;;;;;11.07;4.13;;;8.40;46.90;;;;;;5019830;28;20033;-86
2021/04/08 10:32:35;;;;;;;6.45;3.25;;;8.50;46.70;;;;;;5012474;28;20034;-84
2021/04/08 10:35:04;;;;;;;7.25;3.20;;;;;;;;;;5003797;28;20030;-85
2021/04/08 10:37:30;;;;;;;6.15;3.30;;;;;;;;;;5007611;28;20041;-87
2021/04/08 10:39:57;;;;;;;7.13;3.40;;;;;;;;;;5004841;28;20041;-88
2021/04/08 10:42:23;;;;;;;6.32;3.28;;;9.00;46.90;;;;;;5006207;28;20058;-82
2021/04/08 10:44:51;;;;;;;12.02;3.60;;;9.30;45.50;;;;;;5003329;28;20037;-87
2021/04/08 10:47:19;;;;;;;6.28;3.35;;;;;;;;;;5001131;28;20105;-87
2021/04/08 10:49:55;;;;;;;6.22;3.00;;;;;;;;;;5003633;28;20128;-87
2021/04/08 10:52:22;;;;;;;6.18;2.97;;;9.50;45.40;;;;;;5022173;28;20033;-86
2021/04/08 10:54:55;;;;;;;6.40;3.13;;;9.60;47.60;;;;;;5007334;28;20034;-85
2021/04/08 10:57:22;;;;;;;7.53;3.88;;;9.40;45.30;;;;;;5001378;28;20036;-86
2021/04/08 10:59:50;;;;;;;7.72;3.25;;;9.40;46.80;;;;;;5003407;28;20110;-82
2021/04/08 11:02:29;;;;;;;7.65;3.63;;;9.30;45.40;;;;;;5000391;28;20038;-85
2021/04/08 11:04:58;;;;;;;8.60;3.47;;;8.90;46.80;;;;;;5002843;28;20033;-86
2021/04/08 11:07:25;;;;;;;8.90;3.63;;;9.10;46.60;;;;;;5003090;28;20048;-86
2021/04/08 11:09:52;;;;;;;7.00;3.72;;;;;;;;;;5010551;28;20110;-86
2021/04/08 11:12:18;;;;;;;8.38;4.38;;;;;;;;;;4999669;28;20040;-85
2021/04/08 11:14:45;;;;;;;8.48;4.25;;;;;;;;;;5010969;28;20091;-85
2021/04/08 11:17:11;;;;;;;8.57;3.97;;;;;;;;;;5009331;28;20038;-86
2021/04/08 11:19:37;;;;;;;8.15;4.15;;;;;;;;;;5017752;28;20040;-84
2021/04/08 11:22:04;;;;;;;8.70;3.67;;;;;;;;;;5010238;28;20037;-85
2021/04/08 11:24:32;;;;;;;7.28;3.60;;;;;;;;;;5008097;28;20030;-86
2021/04/08 11:26:58;;;;;;;9.52;4.20;;;;;;;;;;5009466;28;20026;-86
2021/04/08 11:29:26;;;;;;;6.63;3.67;;;9.10;47.30;;;;;;5022528;28;20023;-85
2021/04/08 11:32:07;;;;;;;8.60;3.80;;;9.00;47.40;;;;;;5027505;28;20121;-86
2021/04/08 11:34:40;;;;;;;;;;;9.00;47.50;;;;;;5006991;28;20029;-88
2021/04/08 11:37:06;;;;;;;9.18;4.00;;;;;;;;;;5008468;28;20371;-86
2021/04/08 11:39:35;;;;;;;7.05;4.07;;;;;;;;;;5018040;28;20053;-89
2021/04/08 11:42:13;;;;;;;7.40;4.43;;;;;;;;;;5009572;28;20119;-85
2021/04/08 11:44:40;;;;;;;10.30;4.35;;;;;;;;;;5020563;28;20025;-86
2021/04/08 11:47:19;;;;;;;8.43;4.40;;;9.60;46.50;;;;;;5006299;28;20064;-86
2021/04/08 11:49:52;;;;;;;7.47;3.90;;;9.60;46.90;;;;;;5010541;28;20034;-89
2021/04/08 11:52:27;;;;;;;11.90;5.55;;;;;;;;;;5002043;28;20030;-89
2021/04/08 11:55:11;;;;;;;7.88;4.20;;;9.80;47.00;;;;;;5008807;28;20045;-88
2021/04/08 11:57:37;;;;;;;8.07;4.00;;;9.60;47.50;;;;;;5001019;28;20332;-85
2021/04/08 12:00:12;;;;;;;9.95;4.55;;;9.50;47.50;;;;;;5009451;28;20044;-86
2021/04/08 12:02:39;;;;;;;13.80;4.80;;;9.50;48.30;;;;;;5009183;28;20073;-88
2021/04/08 12:05:10;;;;;;;8.50;4.07;;;9.40;47.90;;;;;;5012466;28;20030;-87
2021/04/08 12:07:50;;;;;;;9.25;4.30;;;9.40;47.90;;;;;;5005028;28;20030;-88
2021/04/08 12:10:34;;;;;;;9.95;4.78;;;9.70;47.70;;;;;;5019272;28;20122;-86
2021/04/08 12:13:06;;;;;;;9.13;4.38;;;10.00;47.00;;;;;;5018460;28;20034;-87
2021/04/08 12:15:32;;;;;;;11.23;4.72;;;10.00;47.00;;;;;;5003698;28;20032;-83
2021/04/08 12:17:58;;;;;;;11.43;4.60;;;10.20;46.90;;;;;;4998848;28;20026;-88
2021/04/08 12:20:24;;;;;;;11.75;4.75;;;;;;;;;;5000740;28;20563;-83
2021/04/08 12:22:52;;;;;;;8.15;4.15;;;;;;;;;;5004604;28;20034;-87
2021/04/08 12:25:19;;;;;;;8.10;4.28;;;9.70;48.00;;;;;;5005078;28;20475;-82
2021/04/08 12:27:47;;;;;;;7.43;4.00;;;10.00;47.00;;;;;;4998372;28;20030;-87
2021/04/08 12:30:14;;;;;;;11.40;4.65;;;10.10;47.10;;;;;;4994799;28;20369;-87
2021/04/08 12:32:40;;;;;;;7.10;3.97;;;10.10;46.90;;;;;;5002153;28;20026;-89
2021/04/08 12:35:08;;;;;;;8.95;4.70;;;10.10;46.80;;;;;;5005356;28;20120;-84
2021/04/08 12:37:33;;;;;;;9.98;4.45;;;10.10;46.70;;;;;;5011309;28;20026;-84
2021/04/08 12:39:59;;;;;;;8.40;4.50;;;;;;;;;;5009343;28;20037;-86
2021/04/08 12:42:26;;;;;;;7.75;4.00;;;;;;;;;;5024477;28;20026;-87
2021/04/08 12:44:54;;;;;;;10.40;4.55;;;9.80;46.90;;;;;;5005758;28;20026;-87
2021/04/08 12:47:20;;;;;;;9.45;4.68;;;;;;;;;;5001689;28;20026;-85
2021/04/08 12:49:46;;;;;;;10.68;4.60;;;9.50;48.00;;;;;;4992478;28;20033;-83
2021/04/08 12:52:13;;;;;;;6.78;3.80;;;;;;;;;;5003872;28;20128;-84
2021/04/08 12:54:38;;;;;;;7.82;4.15;;;9.70;48.30;;;;;;5006804;28;20041;-85
2021/04/08 12:57:04;;;;;;;9.20;4.70;;;10.50;48.20;;;;;;5001295;28;20029;-89
2021/04/08 12:59:30;;;;;;;8.20;4.43;;;10.00;47.20;;;;;;5003311;28;20025;-86
2021/04/08 13:01:56;;;;;;;10.07;4.13;;;9.80;47.60;;;;;;5000098;28;20128;-87
2021/04/08 13:04:22;;;;;;;8.77;4.05;;;11.50;49.20;;;;;;5005797;28;20030;-85
2021/04/08 13:06:49;;;;;;;10.05;4.47;;;9.90;47.60;;;;;;5015875;28;20037;-85
2021/04/08 13:09:15;;;;;;;10.10;3.90;;;10.00;46.90;;;;;;5012610;28;20033;-84
2021/04/08 13:11:41;;;;;;;8.40;3.78;;;;;;;;;;5014533;28;20022;-87
2021/04/08 13:14:07;;;;;;;11.45;4.32;;;;;;;;;;5013433;28;20029;-87
2021/04/08 13:16:34;;;;;;;10.10;4.43;;;10.20;46.90;;;;;;5016158;28;20033;-89
2021/04/08 13:19:01;;;;;;;9.07;3.75;;;10.20;46.80;;;;;;5005511;28;20052;-88
2021/04/08 13:21:27;;;;;;;9.68;3.70;;;;;;;;;;5001333;28;20060;-86
2021/04/08 13:23:54;;;;;;;7.13;3.60;;;10.10;48.30;;;;;;5019106;28;20022;-88
2021/04/08 13:26:20;;;;;;;10.02;4.22;;;;;;;;;;5002247;28;20048;-86
2021/04/08 13:28:46;;;;;;;9.02;4.28;;;10.00;48.10;;;;;;5002621;28;20101;-84